Time;durP1;ratioP1;P1;durP2;ratioP2;P2;SDS_P1;SDS_P2;PMS_P1;PMS_P2;Temp;Humidity;BMP_temperature;BMP_pressure;BME280_temperature;BME280_humidity;BME280_pressure;Samples;Min_cycle;Max_cycle;Signal;HPM_P1;HPM_P2
2021/09/16 00:01:27;;;;;;;5.07;2.30;;;;;;;;;;5118943;28;20294;-64
2021/09/16 00:03:55;;;;;;;3.40;2.47;;;;;;;;;;5118885;28;20621;-62
2021/09/16 00:06:23;;;;;;;2.87;2.50;;;;;;;;;;5118781;28;20294;-62
2021/09/16 00:08:51;;;;;;;4.23;2.30;;;;;;;;;;5118798;27;20234;-61
2021/09/16 00:11:19;;;;;;;5.73;2.53;;;;;;;;;;5119019;28;20291;-62
2021/09/16 00:13:46;;;;;;;6.33;2.70;;;;;;;;;;5118858;28;20242;-62
2021/09/16 00:16:16;;;;;;;7.60;2.80;;;;;;;;;;5118862;28;20204;-62
2021/09/16 00:18:44;;;;;;;5.80;2.63;;;;;;;;;;5118917;28;20204;-61
2021/09/16 00:21:12;;;;;;;8.27;2.43;;;;;;;;;;5118857;28;20286;-62
2021/09/16 00:23:40;;;;;;;5.00;2.23;;;;;;;;;;5118526;28;20208;-61
2021/09/16 00:26:08;;;;;;;4.63;2.53;;;;;;;;;;5118527;28;20210;-61
2021/09/16 00:28:36;;;;;;;5.47;2.80;;;;;;;;;;5118613;28;20210;-61
2021/09/16 00:31:04;;;;;;;7.37;2.80;;;;;;;;;;5118505;28;20282;-62
2021/09/16 00:33:33;;;;;;;4.77;2.50;;;;;;;;;;5118484;28;20212;-61
2021/09/16 00:36:01;;;;;;;8.17;3.60;;;;;;;;;;5118160;28;20209;-62
2021/09/16 00:38:29;;;;;;;7.73;3.00;;;;;;;;;;5118164;28;20213;-63
2021/09/16 00:40:57;;;;;;;4.10;3.10;;;;;;;;;;5118205;28;20568;-63
2021/09/16 00:43:25;;;;;;;4.53;3.57;;;;;;;;;;5118571;28;20208;-63
2021/09/16 00:46:01;;;;;;;6.70;4.03;;;;;;;;;;5118460;28;20208;-61
2021/09/16 00:48:29;;;;;;;7.40;4.07;;;;;;;;;;5118419;28;20210;-61
2021/09/16 00:50:59;;;;;;;6.70;4.97;;;;;;;;;;5118161;28;20653;-63
2021/09/16 00:53:28;;;;;;;7.97;3.93;;;;;;;;;;5117945;28;20201;-63
2021/09/16 00:55:57;;;;;;;6.10;3.60;;;;;;;;;;5118434;28;20235;-63
2021/09/16 00:58:25;;;;;;;6.57;4.03;;;;;;;;;;5111684;28;20217;-61
2021/09/16 01:00:55;;;;;;;9.93;4.57;;;;;;;;;;5118252;28;20207;-62
2021/09/16 01:03:23;;;;;;;7.40;4.60;;;;;;;;;;5118090;28;20204;-62
2021/09/16 01:05:52;;;;;;;7.43;3.70;;;;;;;;;;5118032;28;20315;-61
2021/09/16 01:08:21;;;;;;;9.73;4.63;;;;;;;;;;5117847;28;20236;-61
2021/09/16 01:10:49;;;;;;;6.13;4.10;;;;;;;;;;5118350;28;20209;-62
2021/09/16 01:13:17;;;;;;;6.20;4.57;;;;;;;;;;5118208;28;20204;-63
2021/09/16 01:15:46;;;;;;;8.70;4.63;;;;;;;;;;5117736;28;20232;-62
2021/09/16 01:18:14;;;;;;;9.67;4.93;;;;;;;;;;5117787;28;20656;-62
2021/09/16 01:20:42;;;;;;;8.50;4.23;;;;;;;;;;5118138;28;20205;-62
2021/09/16 01:23:11;;;;;;;7.10;4.30;;;;;;;;;;5117741;28;20200;-62
2021/09/16 01:25:39;;;;;;;12.20;4.80;;;;;;;;;;5117507;28;20221;-62
2021/09/16 01:28:07;;;;;;;6.90;4.23;;;;;;;;;;5117915;28;20248;-61
2021/09/16 01:30:35;;;;;;;7.13;4.63;;;;;;;;;;5117748;28;20204;-62
2021/09/16 01:33:03;;;;;;;7.47;4.00;;;;;;;;;;5117789;28;20573;-62
2021/09/16 01:35:31;;;;;;;8.63;4.83;;;;;;;;;;5117621;28;20224;-61
2021/09/16 01:37:59;;;;;;;7.00;4.53;;;;;;;;;;5117522;28;20287;-61
2021/09/16 01:40:29;;;;;;;5.73;4.10;;;;;;;;;;5117865;28;20292;-62
2021/09/16 01:42:57;;;;;;;9.10;4.53;;;;;;;;;;5117696;28;20209;-62
2021/09/16 01:45:26;;;;;;;7.37;4.00;;;;;;;;;;5117700;28;20686;-62
2021/09/16 01:47:54;;;;;;;9.87;4.47;;;;;;;;;;5117704;28;20217;-62
2021/09/16 01:50:23;;;;;;;7.03;4.87;;;;;;;;;;5121844;28;20205;-61
2021/09/16 01:52:52;;;;;;;7.37;4.77;;;;;;;;;;5121685;28;20217;-61
2021/09/16 01:55:20;;;;;;;7.60;4.57;;;;;;;;;;5121505;28;20610;-61
2021/09/16 01:57:49;;;;;;;6.90;5.00;;;;;;;;;;5117729;28;20206;-61
2021/09/16 02:00:18;;;;;;;8.37;4.90;;;;;;;;;;5119149;28;20297;-62
2021/09/16 02:02:52;;;;;;;8.63;5.43;;;;;;;;;;5121505;27;20208;-63
2021/09/16 02:05:20;;;;;;;11.07;5.63;;;;;;;;;;5121210;28;20225;-63
2021/09/16 02:07:48;;;;;;;6.57;4.50;;;;;;;;;;5121210;28;20239;-63
2021/09/16 02:10:16;;;;;;;6.23;4.73;;;;;;;;;;5121507;28;20226;-63
2021/09/16 02:12:44;;;;;;;8.87;4.70;;;;;;;;;;5121132;28;20209;-63
2021/09/16 02:15:13;;;;;;;8.57;4.73;;;;;;;;;;5121433;28;20242;-62
2021/09/16 02:17:41;;;;;;;7.77;4.40;;;;;;;;;;5121157;27;20211;-62
2021/09/16 02:20:09;;;;;;;10.67;4.67;;;;;;;;;;5121302;28;20215;-62
2021/09/16 02:22:37;;;;;;;8.53;4.80;;;;;;;;;;5121051;28;20201;-63
2021/09/16 02:25:06;;;;;;;11.73;5.80;;;;;;;;;;5121076;28;20217;-63
2021/09/16 02:27:34;;;;;;;6.50;4.50;;;;;;;;;;5120911;27;20590;-63
2021/09/16 02:30:02;;;;;;;7.73;5.10;;;;;;;;;;5121229;28;20236;-63
2021/09/16 02:32:32;;;;;;;9.07;4.60;;;;;;;;;;5120782;28;20288;-62
2021/09/16 02:35:00;;;;;;;7.40;4.67;;;;;;;;;;5120818;28;20221;-63
2021/09/16 02:37:28;;;;;;;6.17;5.10;;;;;;;;;;5120683;28;20205;-63
2021/09/16 02:39:56;;;;;;;8.90;5.30;;;;;;;;;;5120987;28;20212;-62
2021/09/16 02:42:24;;;;;;;11.03;4.90;;;;;;;;;;5120626;27;20207;-63
2021/09/16 02:44:52;;;;;;;7.77;5.07;;;;;;;;;;5120849;28;20312;-62
2021/09/16 02:47:20;;;;;;;9.10;5.03;;;;;;;;;;5120429;28;20209;-63
2021/09/16 02:49:49;;;;;;;9.27;4.90;;;;;;;;;;5120604;27;20201;-63
2021/09/16 02:52:17;;;;;;;8.33;4.97;;;;;;;;;;5120299;28;20283;-63
2021/09/16 02:54:45;;;;;;;8.10;5.33;;;;;;;;;;5120368;28;20345;-63
2021/09/16 02:57:13;;;;;;;7.43;5.30;;;;;;;;;;5120683;28;20215;-63
2021/09/16 02:59:41;;;;;;;8.67;5.20;;;;;;;;;;5113683;28;20219;-63
2021/09/16 03:02:09;;;;;;;7.13;4.23;;;;;;;;;;5120125;28;20580;-63
2021/09/16 03:04:37;;;;;;;7.40;4.80;;;;;;;;;;5120396;28;20224;-63
2021/09/16 03:07:07;;;;;;;10.83;5.10;;;;;;;;;;5119538;27;20303;-63
2021/09/16 03:09:35;;;;;;;6.53;5.13;;;;;;;;;;5120123;27;20731;-62
2021/09/16 03:12:03;;;;;;;10.50;5.47;;;;;;;;;;5120279;28;20208;-63
2021/09/16 03:14:31;;;;;;;8.67;4.80;;;;;;;;;;5120274;28;20260;-63
2021/09/16 03:16:59;;;;;;;10.33;5.33;;;;;;;;;;5120160;28;20233;-63
2021/09/16 03:19:27;;;;;;;10.33;5.77;;;;;;;;;;5120170;28;20209;-63
2021/09/16 03:21:55;;;;;;;8.13;6.43;;;;;;;;;;5119842;28;20585;-63
2021/09/16 03:24:24;;;;;;;8.47;6.03;;;;;;;;;;5119594;28;20699;-63
2021/09/16 03:26:53;;;;;;;8.83;5.13;;;;;;;;;;5120160;28;20211;-61
2021/09/16 03:29:21;;;;;;;10.20;5.27;;;;;;;;;;5119950;27;20208;-61
2021/09/16 03:31:50;;;;;;;9.53;5.30;;;;;;;;;;5119996;28;20207;-62
2021/09/16 03:34:18;;;;;;;9.70;5.03;;;;;;;;;;5119675;28;20227;-61
2021/09/16 03:36:46;;;;;;;7.53;5.70;;;;;;;;;;5119646;27;20255;-61
2021/09/16 03:39:14;;;;;;;8.87;5.33;;;;;;;;;;5119492;28;20207;-62
2021/09/16 03:41:44;;;;;;;11.73;6.33;;;;;;;;;;5119861;27;20288;-61
2021/09/16 03:44:12;;;;;;;9.03;5.80;;;;;;;;;;5119383;28;20235;-61
2021/09/16 03:46:40;;;;;;;9.50;6.53;;;;;;;;;;5119444;28;20209;-61
2021/09/16 03:49:08;;;;;;;8.63;6.33;;;;;;;;;;5119489;28;20200;-61
2021/09/16 03:51:36;;;;;;;10.47;6.43;;;;;;;;;;5119055;28;20210;-61
2021/09/16 03:54:04;;;;;;;11.00;6.57;;;;;;;;;;5119463;28;20226;-63
2021/09/16 03:56:32;;;;;;;12.50;6.53;;;;;;;;;;5119394;28;20225;-62
2021/09/16 03:59:01;;;;;;;11.47;6.43;;;;;;;;;;5112911;28;20206;-62
2021/09/16 04:01:29;;;;;;;9.33;6.37;;;;;;;;;;5119172;28;20205;-62
2021/09/16 04:03:57;;;;;;;10.80;6.67;;;;;;;;;;5119335;28;20225;-61
2021/09/16 04:06:25;;;;;;;10.67;6.73;;;;;;;;;;5118882;28;20317;-62
2021/09/16 04:08:53;;;;;;;11.87;7.27;;;;;;;;;;5118996;28;20238;-62
2021/09/16 04:11:21;;;;;;;9.57;6.20;;;;;;;;;;5118370;28;20218;-64
2021/09/16 04:13:49;;;;;;;8.77;6.80;;;;;;;;;;5119101;28;20220;-63
2021/09/16 04:16:18;;;;;;;8.50;5.67;;;;;;;;;;5118839;28;20221;-63
2021/09/16 04:18:46;;;;;;;10.43;5.93;;;;;;;;;;5114554;28;20198;-62
2021/09/16 04:21:14;;;;;;;8.90;6.27;;;;;;;;;;5118499;28;20198;-63
2021/09/16 04:23:42;;;;;;;12.37;6.37;;;;;;;;;;5118355;28;20209;-62
2021/09/16 04:26:10;;;;;;;12.00;6.13;;;;;;;;;;5117464;28;20228;-62
2021/09/16 04:28:38;;;;;;;8.37;6.33;;;;;;;;;;5118666;28;20201;-62
2021/09/16 04:31:06;;;;;;;9.63;6.60;;;;;;;;;;5118462;28;20211;-63
2021/09/16 04:33:36;;;;;;;14.30;6.97;;;;;;;;;;5118482;28;20205;-61
2021/09/16 04:36:04;;;;;;;16.03;7.17;;;;;;;;;;5135079;27;20224;-62
2021/09/16 04:38:32;;;;;;;11.07;6.17;;;;;;;;;;5118199;28;20209;-62
2021/09/16 04:41:00;;;;;;;12.17;7.03;;;;;;;;;;5118462;28;20200;-63
2021/09/16 04:43:28;;;;;;;11.80;6.20;;;;;;;;;;5118045;28;20211;-63
2021/09/16 04:45:56;;;;;;;12.03;6.90;;;;;;;;;;5117800;27;20212;-62
2021/09/16 04:48:24;;;;;;;11.07;6.73;;;;;;;;;;5118071;28;20291;-63
2021/09/16 04:50:53;;;;;;;7.03;6.13;;;;;;;;;;5114078;28;20201;-63
2021/09/16 04:53:21;;;;;;;10.60;6.07;;;;;;;;;;5108977;28;20213;-63
2021/09/16 04:55:49;;;;;;;10.40;6.30;;;;;;;;;;5138577;27;20227;-63
2021/09/16 04:58:17;;;;;;;10.83;6.63;;;;;;;;;;5114579;27;20231;-62
2021/09/16 05:00:45;;;;;;;9.90;6.23;;;;;;;;;;5117634;28;20306;-63
2021/09/16 05:03:14;;;;;;;10.37;6.87;;;;;;;;;;5108363;28;20209;-62
2021/09/16 05:05:42;;;;;;;13.10;6.47;;;;;;;;;;5105363;28;20661;-61
2021/09/16 05:08:13;;;;;;;10.77;6.07;;;;;;;;;;5114333;28;20254;-62
2021/09/16 05:10:41;;;;;;;7.23;5.53;;;;;;;;;;5118110;28;20201;-62
2021/09/16 05:13:09;;;;;;;10.70;6.13;;;;;;;;;;5108983;28;20195;-62
2021/09/16 05:15:37;;;;;;;11.10;6.40;;;;;;;;;;5114619;28;20651;-62
2021/09/16 05:18:07;;;;;;;10.80;6.80;;;;;;;;;;5117717;28;20233;-62
2021/09/16 05:20:35;;;;;;;10.03;6.13;;;;;;;;;;5116425;28;20284;-63
2021/09/16 05:23:03;;;;;;;13.33;6.93;;;;;;;;;;5116112;28;20654;-63
2021/09/16 05:25:32;;;;;;;10.43;7.27;;;;;;;;;;5111370;28;20593;-63
2021/09/16 05:28:01;;;;;;;9.13;6.73;;;;;;;;;;5120061;28;20250;-62
2021/09/16 05:30:29;;;;;;;11.07;6.73;;;;;;;;;;5120651;28;20219;-61
2021/09/16 05:32:57;;;;;;;10.20;6.80;;;;;;;;;;5121542;28;20669;-62
2021/09/16 05:35:25;;;;;;;11.77;8.63;;;;;;;;;;5123449;27;20224;-62
2021/09/16 05:37:54;;;;;;;10.83;7.20;;;;;;;;;;5141932;27;20229;-62
2021/09/16 05:40:22;;;;;;;8.53;6.80;;;;;;;;;;5122967;27;20261;-62
2021/09/16 05:42:52;;;;;;;13.30;8.03;;;;;;;;;;5119457;28;20213;-62
2021/09/16 05:45:20;;;;;;;13.50;7.63;;;;;;;;;;5119633;28;20287;-62
2021/09/16 05:47:49;;;;;;;16.47;7.43;;;;;;;;;;5117859;28;20242;-62
2021/09/16 05:50:17;;;;;;;12.97;6.87;;;;;;;;;;5120518;27;20209;-62
2021/09/16 05:52:45;;;;;;;18.23;8.10;;;;;;;;;;5117689;28;20201;-62
2021/09/16 05:55:13;;;;;;;11.13;6.87;;;;;;;;;;5116989;27;20213;-62
2021/09/16 05:57:41;;;;;;;10.03;7.50;;;;;;;;;;5111946;28;20229;-62
2021/09/16 06:00:11;;;;;;;9.90;6.93;;;;;;;;;;5122543;27;20212;-62
2021/09/16 06:02:39;;;;;;;10.30;6.77;;;;;;;;;;5117871;28;20197;-63
2021/09/16 06:05:09;;;;;;;9.40;6.53;;;;;;;;;;5113756;28;20229;-62
2021/09/16 06:07:37;;;;;;;12.73;6.60;;;;;;;;;;5118196;28;20210;-62
2021/09/16 06:10:06;;;;;;;10.83;6.30;;;;;;;;;;5137426;27;20209;-63
2021/09/16 06:12:34;;;;;;;15.43;6.90;;;;;;;;;;5140696;27;20230;-62
2021/09/16 06:15:02;;;;;;;8.73;7.23;;;;;;;;;;5121007;28;20314;-63
2021/09/16 06:17:32;;;;;;;11.10;7.67;;;;;;;;;;5121093;28;20237;-63
2021/09/16 06:20:01;;;;;;;11.30;7.43;;;;;;;;;;5116486;28;20204;-63
2021/09/16 06:22:29;;;;;;;16.73;7.83;;;;;;;;;;5102538;27;20210;-63
2021/09/16 06:25:00;;;;;;;18.17;9.13;;;;;;;;;;5109846;28;20222;-63
2021/09/16 06:27:28;;;;;;;17.73;9.37;;;;;;;;;;5120826;28;20202;-62
2021/09/16 06:29:57;;;;;;;16.60;9.73;;;;;;;;;;5120768;28;20664;-63
2021/09/16 06:32:25;;;;;;;18.17;9.87;;;;;;;;;;5120541;28;20244;-63
2021/09/16 06:34:54;;;;;;;18.77;10.83;;;;;;;;;;5128595;27;20629;-63
2021/09/16 06:37:23;;;;;;;21.23;11.03;;;;;;;;;;5140883;27;20224;-63
2021/09/16 06:39:51;;;;;;;19.00;11.63;;;;;;;;;;5119921;27;20233;-63
2021/09/16 06:42:19;;;;;;;20.03;11.63;;;;;;;;;;5120653;28;20232;-63
2021/09/16 06:44:48;;;;;;;19.73;13.70;;;;;;;;;;5120292;28;20266;-63
2021/09/16 06:47:16;;;;;;;21.27;12.70;;;;;;;;;;5120254;28;20567;-63
2021/09/16 06:49:46;;;;;;;20.03;12.77;;;;;;;;;;5120097;28;20270;-63
2021/09/16 06:52:17;;;;;;;21.90;12.70;;;;;;;;;;5120040;28;20669;-63
2021/09/16 06:54:45;;;;;;;20.97;12.53;;;;;;;;;;5120371;28;20263;-62
2021/09/16 06:57:13;;;;;;;22.97;12.43;;;;;;;;;;5110253;28;20222;-62
2021/09/16 06:59:41;;;;;;;19.27;12.10;;;;;;;;;;5109839;28;20211;-63
2021/09/16 07:02:09;;;;;;;20.00;12.33;;;;;;;;;;5120216;28;20212;-62
2021/09/16 07:04:39;;;;;;;24.50;12.87;;;;;;;;;;5120172;28;20229;-63
2021/09/16 07:07:11;;;;;;;21.07;13.47;;;;;;;;;;5119708;28;20302;-63
2021/09/16 07:09:41;;;;;;;22.37;14.27;;;;;;;;;;5120110;28;20211;-63
2021/09/16 07:12:09;;;;;;;22.10;13.87;;;;;;;;;;5118875;28;20621;-63
2021/09/16 07:14:37;;;;;;;23.73;13.23;;;;;;;;;;5118128;28;20227;-63
2021/09/16 07:17:06;;;;;;;21.70;13.20;;;;;;;;;;5119941;28;20211;-63
2021/09/16 07:19:34;;;;;;;21.27;13.13;;;;;;;;;;5120051;28;20231;-63
2021/09/16 07:22:02;;;;;;;26.53;13.97;;;;;;;;;;5119301;28;20575;-63
2021/09/16 07:24:31;;;;;;;19.83;14.00;;;;;;;;;;5119591;28;20229;-63
2021/09/16 07:27:00;;;;;;;18.40;13.10;;;;;;;;;;5119735;28;20612;-63
2021/09/16 07:29:29;;;;;;;19.03;13.63;;;;;;;;;;5117283;27;20270;-62
2021/09/16 07:31:57;;;;;;;19.20;13.67;;;;;;;;;;5119470;28;20206;-63
2021/09/16 07:34:25;;;;;;;19.40;13.10;;;;;;;;;;5119582;28;20281;-63
2021/09/16 07:36:53;;;;;;;23.80;13.70;;;;;;;;;;5119454;28;20204;-63
2021/09/16 07:39:22;;;;;;;22.10;13.73;;;;;;;;;;5119497;28;20232;-62
2021/09/16 07:41:51;;;;;;;20.60;13.57;;;;;;;;;;5119606;28;20689;-62
2021/09/16 07:44:20;;;;;;;15.33;11.80;;;;;;;;;;5119305;27;20225;-62
2021/09/16 07:46:48;;;;;;;22.13;13.00;;;;;;;;;;5111927;28;20772;-62
2021/09/16 07:49:27;;;;;;;23.37;12.37;;;;;;;;;;5119026;28;20204;-62
2021/09/16 07:51:56;;;;;;;16.93;11.33;;;;;;;;;;5112367;27;20225;-62
2021/09/16 07:54:27;;;;;;;22.17;10.83;;;;;;;;;;5139933;27;20315;-63
2021/09/16 07:56:55;;;;;;;15.70;10.07;;;;;;;;;;5128107;27;20262;-63
2021/09/16 07:59:24;;;;;;;16.73;10.33;;;;;;;;;;5112762;28;20227;-62
2021/09/16 08:01:52;;;;;;;20.30;12.13;;;;;;;;;;5118685;28;20200;-62
2021/09/16 08:04:21;;;;;;;20.30;11.70;;;;;;;;;;5107911;28;20230;-63
2021/09/16 08:06:49;;;;;;;17.43;10.83;;;;;;;;;;5116795;28;20240;-62
2021/09/16 08:09:17;;;;;;;12.83;8.63;;;;;;;;;;5119130;28;20196;-63
2021/09/16 08:11:45;;;;;;;16.17;9.53;;;;;;;;;;5119081;27;20208;-62
2021/09/16 08:14:14;;;;;;;23.30;13.40;;;;;;;;;;5118715;27;20634;-63
2021/09/16 08:16:43;;;;;;;21.13;12.30;;;;;;;;;;5118871;28;20212;-63
2021/09/16 08:19:15;;;;;;;18.03;12.07;;;;;;;;;;5118492;28;20724;-63
2021/09/16 08:21:43;;;;;;;26.07;12.87;;;;;;;;;;5111902;28;20204;-63
2021/09/16 08:24:11;;;;;;;16.13;12.40;;;;;;;;;;5118288;28;20688;-62
2021/09/16 08:26:40;;;;;;;17.60;11.80;;;;;;;;;;5118481;28;20209;-62
2021/09/16 08:29:08;;;;;;;17.57;12.97;;;;;;;;;;5118940;28;20214;-62
2021/09/16 08:31:36;;;;;;;22.43;12.87;;;;;;;;;;5118413;28;20201;-63
2021/09/16 08:34:06;;;;;;;21.53;11.97;;;;;;;;;;5118169;28;20221;-63
2021/09/16 08:36:34;;;;;;;17.27;11.37;;;;;;;;;;5137552;27;20212;-63
2021/09/16 08:39:02;;;;;;;16.87;10.53;;;;;;;;;;5117712;27;20236;-62
2021/09/16 08:41:33;;;;;;;16.93;10.30;;;;;;;;;;5118096;28;20532;-62
2021/09/16 08:44:01;;;;;;;13.57;7.07;;;;;;;;;;5118445;28;20255;-62
2021/09/16 08:46:30;;;;;;;12.90;7.70;;;;;;;;;;5118443;28;20240;-63
2021/09/16 08:48:58;;;;;;;11.53;8.07;;;;;;;;;;5118020;28;20716;-62
2021/09/16 08:51:28;;;;;;;13.80;8.07;;;;;;;;;;5117620;28;20297;-63
2021/09/16 08:53:56;;;;;;;14.43;8.30;;;;;;;;;;5117753;28;20317;-62
2021/09/16 08:56:24;;;;;;;10.53;5.63;;;;;;;;;;5106197;28;20650;-62
2021/09/16 08:58:53;;;;;;;11.23;6.00;;;;;;;;;;5109301;28;20314;-63
2021/09/16 09:01:21;;;;;;;9.87;5.63;;;;;;;;;;5107831;28;20280;-62
2021/09/16 09:03:50;;;;;;;11.67;6.40;;;;;;;;;;5103199;28;20221;-62
2021/09/16 09:06:25;;;;;;;10.53;6.50;;;;;;;;;;5104449;28;20241;-63
2021/09/16 09:09:09;;;;;;;11.30;6.37;;;;;;;;;;5117944;28;20202;-63
2021/09/16 09:11:54;;;;;;;8.97;6.13;;;;;;;;;;5112921;28;20209;-63
2021/09/16 09:14:23;;;;;;;8.90;6.20;;;;;;;;;;5108788;28;20277;-62
2021/09/16 09:16:51;;;;;;;7.67;5.80;;;;;;;;;;5117296;28;20197;-62
2021/09/16 09:19:21;;;;;;;9.40;5.87;;;;;;;;;;5117699;28;20254;-62
2021/09/16 09:21:49;;;;;;;8.57;6.87;;;;;;;;;;5117057;28;20255;-63
2021/09/16 09:24:31;;;;;;;12.20;6.13;;;;;;;;;;5117893;28;20227;-62
2021/09/16 09:26:59;;;;;;;9.87;6.13;;;;;;;;;;5110657;28;20672;-64
2021/09/16 09:29:28;;;;;;;15.93;7.17;;;;;;;;;;5107660;28;20259;-62
2021/09/16 09:32:14;;;;;;;9.80;6.57;;;;;;;;;;5117656;28;20206;-63
2021/09/16 09:34:42;;;;;;;10.57;6.30;;;;;;;;;;5122983;28;20751;-63
2021/09/16 09:37:11;;;;;;;9.17;5.80;;;;;;;;;;5138307;27;20213;-63
2021/09/16 09:39:41;;;;;;;12.37;7.83;;;;;;;;;;5138290;27;20229;-63
2021/09/16 09:42:16;;;;;;;13.93;7.80;;;;;;;;;;5138483;27;20204;-63
2021/09/16 09:44:45;;;;;;;13.50;8.07;;;;;;;;;;5138372;27;20270;-64
2021/09/16 09:47:13;;;;;;;11.90;7.43;;;;;;;;;;5115368;27;20617;-63
2021/09/16 09:49:41;;;;;;;11.33;7.00;;;;;;;;;;5117622;28;20208;-63
2021/09/16 09:52:09;;;;;;;12.57;7.43;;;;;;;;;;5104073;28;20244;-63
2021/09/16 09:54:38;;;;;;;9.20;6.40;;;;;;;;;;5114601;28;20223;-63
2021/09/16 09:57:13;;;;;;;10.53;6.43;;;;;;;;;;5106650;28;20621;-63
2021/09/16 09:59:51;;;;;;;9.53;6.37;;;;;;;;;;5104972;28;20224;-64
2021/09/16 10:02:19;;;;;;;9.30;5.80;;;;;;;;;;5109334;28;20208;-65
2021/09/16 10:04:49;;;;;;;13.90;5.60;;;;;;;;;;5114258;28;20221;-63
2021/09/16 10:07:27;;;;;;;12.40;6.97;;;;;;;;;;5103461;28;20230;-63
2021/09/16 10:09:56;;;;;;;9.60;5.80;;;;;;;;;;5109111;28;20297;-62
2021/09/16 10:12:26;;;;;;;7.93;6.40;;;;;;;;;;5106994;28;20203;-62
2021/09/16 10:15:03;;;;;;;9.53;6.20;;;;;;;;;;5108519;28;20222;-61
2021/09/16 10:17:31;;;;;;;7.33;4.90;;;;;;;;;;5119748;28;20209;-64
2021/09/16 10:20:00;;;;;;;11.23;4.87;;;;;;;;;;5119849;28;20222;-64
2021/09/16 10:22:29;;;;;;;7.40;5.30;;;;;;;;;;5114784;28;20199;-64
2021/09/16 10:24:57;;;;;;;5.53;4.50;;;;;;;;;;5113361;28;20299;-62
2021/09/16 10:27:28;;;;;;;6.53;4.97;;;;;;;;;;5109806;28;20224;-62
2021/09/16 10:29:56;;;;;;;8.40;4.90;;;;;;;;;;5103536;28;20220;-60
2021/09/16 10:32:39;;;;;;;6.47;4.93;;;;;;;;;;5108230;28;20280;-61
2021/09/16 10:35:18;;;;;;;5.87;4.70;;;;;;;;;;5107475;28;20723;-61
2021/09/16 10:37:46;;;;;;;7.23;5.60;;;;;;;;;;5105917;28;20262;-61
2021/09/16 10:40:28;;;;;;;7.90;4.83;;;;;;;;;;5105549;28;20214;-62
2021/09/16 10:42:59;;;;;;;8.93;5.73;;;;;;;;;;5103287;28;20197;-62
2021/09/16 10:45:34;;;;;;;9.47;5.13;;;;;;;;;;5107893;28;20663;-62
2021/09/16 10:48:17;;;;;;;5.27;4.63;;;;;;;;;;5115778;28;20287;-60
2021/09/16 10:50:46;;;;;;;9.80;5.47;;;;;;;;;;5118059;28;20206;-62
2021/09/16 10:53:31;;;;;;;7.27;5.83;;;;;;;;;;5120043;28;20207;-61
2021/09/16 10:55:59;;;;;;;8.80;5.80;;;;;;;;;;5120322;27;20244;-61
2021/09/16 10:58:29;;;;;;;11.03;6.27;;;;;;;;;;5116000;28;20244;-62
2021/09/16 11:00:57;;;;;;;7.70;5.87;;;;;;;;;;5120288;28;20313;-62
2021/09/16 11:03:25;;;;;;;6.03;4.77;;;;;;;;;;5116550;28;20210;-62
2021/09/16 11:06:00;;;;;;;8.50;5.50;;;;;;;;;;5106151;28;20228;-62
2021/09/16 11:08:54;;;;;;;7.20;4.30;;;;;;;;;;5105921;28;20216;-62
2021/09/16 11:11:22;;;;;;;5.03;3.93;;;;;;;;;;5078924;28;20211;-62
2021/09/16 11:13:53;;;;;;;8.90;4.97;;;;;;;;;;5119883;27;20222;-62
2021/09/16 11:16:23;;;;;;;5.87;4.70;;;;;;;;;;5137741;27;20221;-62
2021/09/16 11:18:52;;;;;;;5.87;4.70;;;;;;;;;;5108448;28;20207;-61
2021/09/16 11:21:23;;;;;;;11.07;5.07;;;;;;;;;;5107051;28;20217;-61
2021/09/16 11:23:51;;;;;;;7.37;4.60;;;;;;;;;;5107705;28;20304;-62
2021/09/16 11:26:20;;;;;;;6.03;4.93;;;;;;;;;;5100428;28;20601;-61
2021/09/16 11:29:00;;;;;;;5.23;4.57;;;;;;;;;;5107234;28;20283;-62
2021/09/16 11:31:29;;;;;;;6.43;4.50;;;;;;;;;;5106864;28;20280;-61
2021/09/16 11:34:12;;;;;;;6.97;4.40;;;;;;;;;;5103973;28;20220;-62
2021/09/16 11:36:55;;;;;;;6.77;4.83;;;;;;;;;;5104772;28;20199;-62
2021/09/16 11:39:22;;;;;;;8.57;5.30;;;;;;;;;;5102699;28;20290;-62
2021/09/16 11:42:07;;;;;;;5.97;4.70;;;;;;;;;;5105877;28;20197;-62
2021/09/16 11:44:36;;;;;;;7.17;5.17;;;;;;;;;;5101946;28;20652;-62
2021/09/16 11:47:04;;;;;;;8.40;5.40;;;;;;;;;;5119564;28;20227;-62
2021/09/16 11:49:32;;;;;;;7.87;4.00;;;;;;;;;;5119546;28;20205;-62
2021/09/16 11:52:00;;;;;;;5.90;4.43;;;;;;;;;;5119333;28;20215;-62
2021/09/16 11:54:28;;;;;;;6.50;4.37;;;;;;;;;;5116479;28;20252;-62
2021/09/16 11:57:01;;;;;;;6.03;3.87;;;;;;;;;;5115775;28;20262;-63
2021/09/16 11:59:33;;;;;;;8.77;4.27;;;;;;;;;;5105742;28;20206;-62
2021/09/16 12:02:03;;;;;;;5.20;4.70;;;;;;;;;;5119299;28;20289;-61
2021/09/16 12:04:41;;;;;;;7.93;4.87;;;;;;;;;;5118957;28;20236;-61
2021/09/16 12:07:09;;;;;;;8.37;4.70;;;;;;;;;;5118837;28;20325;-62
2021/09/16 12:09:37;;;;;;;7.03;4.63;;;;;;;;;;5119015;28;20237;-60
2021/09/16 12:12:05;;;;;;;9.47;5.23;;;;;;;;;;5119933;28;20237;-61
2021/09/16 12:14:33;;;;;;;11.13;6.83;;;;;;;;;;5118880;28;20225;-62
2021/09/16 12:17:05;;;;;;;9.13;5.50;;;;;;;;;;5118723;28;20204;-62
2021/09/16 12:19:35;;;;;;;10.23;5.73;;;;;;;;;;5119119;27;20205;-62
2021/09/16 12:22:03;;;;;;;10.50;6.10;;;;;;;;;;5118641;28;20283;-62
2021/09/16 12:24:31;;;;;;;12.73;6.47;;;;;;;;;;5118768;28;20224;-62
2021/09/16 12:26:59;;;;;;;10.43;6.20;;;;;;;;;;5118912;28;20286;-62
2021/09/16 12:29:28;;;;;;;11.27;6.30;;;;;;;;;;5118817;28;20284;-60
2021/09/16 12:31:57;;;;;;;12.17;5.47;;;;;;;;;;5117607;28;20200;-62
2021/09/16 12:34:29;;;;;;;9.20;4.13;;;;;;;;;;5118420;28;20278;-63
2021/09/16 12:36:57;;;;;;;8.10;3.77;;;;;;;;;;5118386;28;20208;-62
2021/09/16 12:39:26;;;;;;;8.23;4.77;;;;;;;;;;5118757;28;20286;-62
2021/09/16 12:41:55;;;;;;;6.57;4.03;;;;;;;;;;5118474;28;20232;-66
2021/09/16 12:44:23;;;;;;;6.70;3.70;;;;;;;;;;5118537;28;20257;-66
2021/09/16 12:46:53;;;;;;;8.77;3.60;;;;;;;;;;5118280;28;20200;-65
2021/09/16 12:49:36;;;;;;;6.07;4.03;;;;;;;;;;5118445;28;20217;-65
2021/09/16 12:52:05;;;;;;;7.43;4.17;;;;;;;;;;5118270;28;20240;-67
2021/09/16 12:54:35;;;;;;;7.37;3.57;;;;;;;;;;5118316;28;20708;-65
2021/09/16 12:57:04;;;;;;;3.63;2.70;;;;;;;;;;5118345;28;20205;-65
2021/09/16 12:59:32;;;;;;;4.00;2.90;;;;;;;;;;5117497;28;20211;-65
2021/09/16 13:02:07;;;;;;;5.33;2.50;;;;;;;;;;5118204;28;20320;-65
2021/09/16 13:04:58;;;;;;;5.50;2.50;;;;;;;;;;5118169;28;20231;-65
2021/09/16 13:07:27;;;;;;;5.43;2.27;;;;;;;;;;5117245;28;20288;-64
2021/09/16 13:10:08;;;;;;;3.13;1.77;;;;;;;;;;5118271;28;20295;-64
2021/09/16 13:12:36;;;;;;;3.10;1.90;;;;;;;;;;5109473;28;20196;-63
2021/09/16 13:15:04;;;;;;;2.47;1.83;;;;;;;;;;5105826;28;20225;-63
2021/09/16 13:17:32;;;;;;;5.90;2.17;;;;;;;;;;5104679;28;20203;-63
2021/09/16 13:20:02;;;;;;;3.73;2.40;;;;;;;;;;5105806;28;20258;-66
2021/09/16 13:22:30;;;;;;;4.33;2.63;;;;;;;;;;5101767;28;20251;-65
2021/09/16 13:24:59;;;;;;;3.70;2.60;;;;;;;;;;5110599;28;20220;-65
2021/09/16 13:27:27;;;;;;;4.27;2.33;;;;;;;;;;5117914;28;20295;-65
2021/09/16 13:29:55;;;;;;;4.23;2.17;;;;;;;;;;5114073;28;20200;-64
2021/09/16 13:32:23;;;;;;;3.30;2.13;;;;;;;;;;5117021;28;20199;-65
2021/09/16 13:34:51;;;;;;;2.23;1.80;;;;;;;;;;5117627;28;20231;-65
2021/09/16 13:37:20;;;;;;;2.23;2.00;;;;;;;;;;5117300;28;20203;-63
2021/09/16 13:39:48;;;;;;;4.10;2.50;;;;;;;;;;5117621;28;20674;-62
2021/09/16 13:42:16;;;;;;;3.10;2.00;;;;;;;;;;5106841;28;20227;-63
2021/09/16 13:44:44;;;;;;;4.00;3.07;;;;;;;;;;5107388;28;20225;-64
2021/09/16 13:47:12;;;;;;;3.10;2.30;;;;;;;;;;5111561;28;20262;-63
2021/09/16 13:49:40;;;;;;;4.73;2.13;;;;;;;;;;5121797;28;20210;-63
2021/09/16 13:52:08;;;;;;;2.97;2.00;;;;;;;;;;5114140;28;20195;-62
2021/09/16 13:54:37;;;;;;;3.07;2.40;;;;;;;;;;5121470;28;20263;-63
2021/09/16 13:57:05;;;;;;;8.30;2.27;;;;;;;;;;5121680;27;20290;-63
2021/09/16 13:59:34;;;;;;;3.87;2.20;;;;;;;;;;5107383;28;20218;-63
2021/09/16 14:02:02;;;;;;;2.67;1.70;;;;;;;;;;5121087;28;20247;-61
2021/09/16 14:04:30;;;;;;;2.27;2.00;;;;;;;;;;5120935;28;20253;-63
2021/09/16 14:06:58;;;;;;;2.00;1.87;;;;;;;;;;5120809;28;20236;-63
2021/09/16 14:09:26;;;;;;;3.27;2.13;;;;;;;;;;5121323;27;20214;-62
2021/09/16 14:11:56;;;;;;;2.10;1.77;;;;;;;;;;5121053;28;20259;-64
2021/09/16 14:14:24;;;;;;;3.23;1.77;;;;;;;;;;5120965;28;20263;-62
2021/09/16 14:16:52;;;;;;;5.87;3.07;;;;;;;;;;5120350;28;20240;-63
2021/09/16 14:19:20;;;;;;;5.90;2.57;;;;;;;;;;5121288;28;20218;-62
2021/09/16 14:21:48;;;;;;;4.00;2.27;;;;;;;;;;5123174;27;20227;-62
2021/09/16 14:24:16;;;;;;;3.43;2.47;;;;;;;;;;5125861;27;20217;-63
2021/09/16 14:26:44;;;;;;;2.90;2.60;;;;;;;;;;5113378;27;20198;-62
2021/09/16 14:29:14;;;;;;;2.87;2.33;;;;;;;;;;5108873;28;20283;-62
2021/09/16 14:31:42;;;;;;;2.50;2.30;;;;;;;;;;5106749;28;20215;-63
2021/09/16 14:34:10;;;;;;;4.03;2.20;;;;;;;;;;5108295;28;20306;-62
2021/09/16 14:36:42;;;;;;;3.33;1.93;;;;;;;;;;5109659;28;20280;-63
2021/09/16 14:39:10;;;;;;;2.67;2.13;;;;;;;;;;5108824;28;20277;-63
2021/09/16 14:41:38;;;;;;;3.47;2.60;;;;;;;;;;5106297;28;20222;-63
2021/09/16 14:44:06;;;;;;;2.73;2.53;;;;;;;;;;5104325;28;20305;-63
2021/09/16 14:46:36;;;;;;;2.93;2.53;;;;;;;;;;5120311;28;20220;-63
2021/09/16 14:49:04;;;;;;;4.13;2.50;;;;;;;;;;5120455;28;20288;-63